Time;durP1;ratioP1;P1;durP2;ratioP2;P2;SDS_P1;SDS_P2;PMS_P1;PMS_P2;Temp;Humidity;BMP_temperature;BMP_pressure;BME280_temperature;BME280_humidity;BME280_pressure;Samples;Min_cycle;Max_cycle;Signal;HPM_P1;HPM_P2
2024/02/17 00:04:20;;;;;;;25.10;13.30;;;;;;;10.96;100.00;100673.12;214282;1285;140024;-92
2024/02/17 00:09:20;;;;;;;21.50;12.50;;;;;;;10.97;100.00;100679.97;215602;1285;139387;-88
2024/02/17 00:14:21;;;;;;;23.40;12.70;;;;;;;10.96;100.00;100682.78;213734;1284;140567;-88
2024/02/17 00:19:21;;;;;;;22.30;13.30;;;;;;;10.94;100.00;100684.50;214306;1289;139184;-89
2024/02/17 00:24:24;;;;;;;19.70;12.50;;;;;;;10.88;100.00;100685.20;213752;1288;140697;-89
2024/02/17 00:29:24;;;;;;;22.90;14.90;;;;;;;10.84;100.00;100687.82;213861;1285;139667;-88
2024/02/17 00:34:25;;;;;;;24.60;14.60;;;;;;;10.81;100.00;100694.23;213359;1285;140532;-89
2024/02/17 00:39:25;;;;;;;25.20;15.20;;;;;;;10.77;100.00;100701.48;214078;1285;139371;-89
2024/02/17 00:44:26;;;;;;;23.00;14.70;;;;;;;10.72;100.00;100708.49;213857;1285;140199;-88
2024/02/17 00:49:26;;;;;;;27.10;15.80;;;;;;;10.66;100.00;100692.27;214137;1289;139989;-89
2024/02/17 00:54:26;;;;;;;29.30;16.70;;;;;;;10.63;100.00;100701.28;213538;1285;140078;-88
2024/02/17 00:59:27;;;;;;;23.10;15.20;;;;;;;10.58;100.00;100715.35;214039;1289;139213;-87
2024/02/17 01:04:27;;;;;;;26.00;16.00;;;;;;;10.52;100.00;100730.02;213404;1285;140217;-86
2024/02/17 01:09:28;;;;;;;23.70;14.30;;;;;;;10.48;100.00;100723.60;214353;1285;139202;-87
2024/02/17 01:14:28;;;;;;;28.50;15.30;;;;;;;10.46;100.00;100717.29;213400;1285;140050;-88
2024/02/17 01:19:29;;;;;;;26.20;15.50;;;;;;;10.44;100.00;100720.95;213987;1285;139550;-87
2024/02/17 01:24:30;;;;;;;28.00;17.30;;;;;;;10.42;100.00;100733.27;213112;1287;140322;-87
2024/02/17 01:29:30;;;;;;;26.80;16.40;;;;;;;10.41;100.00;100725.62;213467;1286;139624;-87
2024/02/17 01:34:30;;;;;;;27.50;17.60;;;;;;;10.39;100.00;100721.89;213920;1290;140603;-87
2024/02/17 01:39:31;;;;;;;29.50;17.70;;;;;;;10.39;100.00;100736.12;213843;1286;139202;-86
2024/02/17 01:44:31;;;;;;;27.60;17.60;;;;;;;10.38;100.00;100753.88;213411;1285;140467;-86
2024/02/17 01:49:32;;;;;;;34.30;17.70;;;;;;;10.38;100.00;100759.52;213873;1285;139187;-87
2024/02/17 01:54:33;;;;;;;32.70;19.20;;;;;;;10.35;100.00;100745.10;213483;1289;140956;-86
2024/02/17 01:59:34;;;;;;;30.70;18.30;;;;;;;10.35;100.00;100747.06;213895;1285;139061;-87
2024/02/17 02:04:35;;;;;;;27.40;17.80;;;;;;;10.36;100.00;100754.85;213294;1291;140221;-86
2024/02/17 02:09:35;;;;;;;29.60;17.80;;;;;;;10.38;100.00;100760.46;213820;1285;139248;-87
2024/02/17 02:14:35;;;;;;;30.60;17.60;;;;;;;10.38;100.00;100760.86;213367;1284;140441;-87
2024/02/17 02:19:36;;;;;;;29.10;18.10;;;;;;;10.40;100.00;100755.31;213885;1285;139713;-88
2024/02/17 02:24:38;;;;;;;31.40;20.10;;;;;;;10.39;100.00;100761.90;213080;1287;140884;-88
2024/02/17 02:29:44;;;;;;;28.40;19.30;;;;;;;10.39;100.00;100768.66;213412;1286;139051;-88
2024/02/17 02:34:47;;;;;;;30.30;18.90;;;;;;;10.39;100.00;100765.44;213268;1290;140364;-87
2024/02/17 02:39:48;;;;;;;30.40;18.30;;;;;;;10.39;100.00;100760.09;213468;1286;139163;-87
2024/02/17 02:44:48;;;;;;;28.90;18.10;;;;;;;10.40;100.00;100764.83;212816;1290;140205;-87
2024/02/17 02:49:49;;;;;;;32.80;18.70;;;;;;;10.40;100.00;100769.94;213376;1290;139226;-87
2024/02/17 02:54:50;;;;;;;30.10;19.10;;;;;;;10.40;100.00;100773.39;212994;1286;140437;-88
2024/02/17 02:59:50;;;;;;;32.30;20.70;;;;;;;10.40;100.00;100780.92;213369;1290;139097;-86
2024/02/17 03:04:55;;;;;;;30.40;19.10;;;;;;;10.39;100.00;100789.89;213783;1285;140939;-87
2024/02/17 03:09:56;;;;;;;31.80;19.90;;;;;;;10.39;100.00;100791.61;213738;1284;139250;-87
2024/02/17 03:14:58;;;;;;;32.40;20.10;;;;;;;10.40;100.00;100792.82;213173;1286;139987;-86
2024/02/17 03:19:58;;;;;;;28.60;18.40;;;;;;;10.41;100.00;100795.90;212922;1285;140310;-85
2024/02/17 03:24:59;;;;;;;29.40;18.70;;;;;;;10.40;100.00;100790.76;213422;1290;97959;-87
2024/02/17 03:30:00;;;;;;;30.50;18.70;;;;;;;10.39;100.00;100785.16;213204;1285;140375;-86
2024/02/17 03:35:03;;;;;;;33.50;19.70;;;;;;;10.35;100.00;100800.43;213955;1285;139258;-87
2024/02/17 03:40:08;;;;;;;33.30;20.20;;;;;;;10.35;100.00;100811.04;213475;1285;141456;-86
2024/02/17 03:45:09;;;;;;;32.40;19.70;;;;;;;10.35;100.00;100822.27;213575;1285;139501;-86
2024/02/17 03:50:09;;;;;;;33.40;20.90;;;;;;;10.34;100.00;100828.95;213510;1285;140289;-87
2024/02/17 03:55:10;;;;;;;30.70;19.40;;;;;;;10.34;100.00;100821.39;213544;1287;139212;-85
2024/02/17 04:00:13;;;;;;;30.60;20.10;;;;;;;10.34;100.00;100822.20;213019;1287;140324;-85
2024/02/17 04:05:14;;;;;;;36.00;21.00;;;;;;;10.36;100.00;100834.55;213999;1286;139060;-86
2024/02/17 04:10:15;;;;;;;30.80;19.40;;;;;;;10.37;100.00;100841.58;213588;1284;141902;-85
2024/02/17 04:15:17;;;;;;;33.20;20.00;;;;;;;10.38;100.00;100847.27;214104;1285;139341;-85
2024/02/17 04:20:17;;;;;;;27.00;17.30;;;;;;;10.39;100.00;100850.27;213567;1288;140420;-85
2024/02/17 04:25:18;;;;;;;28.60;17.90;;;;;;;10.40;100.00;100858.61;213550;1287;139389;-85
2024/02/17 04:30:18;;;;;;;29.00;18.90;;;;;;;10.41;100.00;100855.73;212966;1286;140130;-86
2024/02/17 04:35:19;;;;;;;32.70;17.60;;;;;;;10.42;100.00;100848.83;213956;1285;139187;-85
2024/02/17 04:40:19;;;;;;;30.60;19.60;;;;;;;10.43;100.00;100855.69;213632;1285;141807;-86
2024/02/17 04:45:20;;;;;;;31.40;20.90;;;;;;;10.45;100.00;100861.61;213949;1285;139381;-86
2024/02/17 04:50:20;;;;;;;29.00;18.50;;;;;;;10.45;100.00;100867.90;213574;1289;140612;-86
2024/02/17 04:55:20;;;;;;;29.20;18.10;;;;;;;10.45;100.00;100879.79;213361;1290;139233;-85
2024/02/17 05:00:21;;;;;;;31.40;18.30;;;;;;;10.45;100.00;100881.98;212901;1287;141047;-86
2024/02/17 05:05:21;;;;;;;26.90;17.70;;;;;;;10.46;100.00;100890.41;213923;1286;139037;-87
2024/02/17 05:10:22;;;;;;;30.30;18.50;;;;;;;10.46;100.00;100900.15;213299;1290;140382;-85
2024/02/17 05:15:22;;;;;;;27.80;17.70;;;;;;;10.46;100.00;100904.48;214196;1290;139790;-86
2024/02/17 05:20:23;;;;;;;25.70;15.80;;;;;;;10.44;100.00;100915.20;212837;1287;140307;-87
2024/02/17 05:25:23;;;;;;;26.60;16.60;;;;;;;10.42;100.00;100915.73;213367;1287;139388;-87
2024/02/17 05:30:24;;;;;;;24.50;15.80;;;;;;;10.41;100.00;100919.70;213165;1286;140556;-87
2024/02/17 05:35:24;;;;;;;25.20;15.30;;;;;;;10.35;100.00;100918.90;213252;1287;139225;-87
2024/02/17 05:40:24;;;;;;;22.40;14.60;;;;;;;10.34;100.00;100923.67;212929;1290;140575;-86
2024/02/17 05:45:25;;;;;;;23.80;15.40;;;;;;;10.32;100.00;100930.39;213497;1290;139232;-87
2024/02/17 05:50:26;;;;;;;23.20;14.50;;;;;;;10.31;100.00;100940.35;213313;1285;141264;-86
2024/02/17 05:55:26;;;;;;;24.60;14.70;;;;;;;10.31;100.00;100952.06;213972;1286;139589;-86
2024/02/17 06:00:27;;;;;;;23.40;14.50;;;;;;;10.30;100.00;100959.76;213440;1287;141235;-86
2024/02/17 06:05:28;;;;;;;23.30;13.50;;;;;;;10.27;100.00;100968.56;214009;1289;139354;-86
2024/02/17 06:10:29;;;;;;;20.60;12.40;;;;;;;10.22;100.00;100972.48;213474;1291;140365;-87
2024/02/17 06:15:29;;;;;;;20.40;11.30;;;;;;;10.21;100.00;100979.12;214243;1289;139853;-87
2024/02/17 06:25:49;;;;;;;17.40;10.50;;;;;;;10.20;100.00;100994.44;213857;1285;139240;-86
2024/02/17 06:30:49;;;;;;;17.90;10.20;;;;;;;10.19;100.00;101005.41;213681;1285;140511;-86
2024/02/17 06:35:50;;;;;;;20.20;11.10;;;;;;;10.18;100.00;101012.23;213336;1287;139056;-86
2024/02/17 06:40:51;;;;;;;16.60;10.50;;;;;;;10.16;100.00;101016.74;213341;1285;140095;-85
2024/02/17 06:45:51;;;;;;;16.00;9.80;;;;;;;10.15;100.00;101022.00;213268;1286;139181;-87
2024/02/17 06:50:52;;;;;;;16.40;9.90;;;;;;;10.13;100.00;101021.78;212855;1289;140230;-85
2024/02/17 06:55:53;;;;;;;18.30;9.50;;;;;;;10.11;100.00;101024.26;213990;1285;139864;-86
2024/02/17 07:00:53;;;;;;;13.70;8.30;;;;;;;10.11;100.00;101026.77;213536;1289;141145;-86
2024/02/17 07:05:53;;;;;;;15.60;8.70;;;;;;;10.12;100.00;101033.45;213909;1285;139389;-86
2024/02/17 07:10:54;;;;;;;17.10;9.30;;;;;;;10.13;100.00;101042.93;213196;1286;140149;-86
2024/02/17 07:15:54;;;;;;;13.10;8.00;;;;;;;10.15;100.00;101049.64;213995;1289;139362;-86
2024/02/17 07:20:54;;;;;;;13.40;8.10;;;;;;;10.15;100.00;101051.68;213600;1287;140429;-87
2024/02/17 07:25:55;;;;;;;14.20;8.60;;;;;;;10.14;100.00;101057.73;213403;1287;139032;-86
2024/02/17 07:30:56;;;;;;;17.80;9.60;;;;;;;10.13;100.00;101071.05;214016;1289;141738;-87
2024/02/17 07:35:57;;;;;;;16.50;9.60;;;;;;;10.12;100.00;101073.31;213732;1289;138922;-87
2024/02/17 07:40:57;;;;;;;15.60;8.00;;;;;;;10.11;100.00;101082.02;213332;1286;140070;-89
2024/02/17 07:45:57;;;;;;;14.50;8.70;;;;;;;10.10;100.00;101098.65;213256;1287;140142;-87
2024/02/17 07:50:58;;;;;;;14.60;8.60;;;;;;;10.10;100.00;101107.70;213300;1287;140783;-90
2024/02/17 07:55:58;;;;;;;14.00;8.20;;;;;;;10.10;100.00;101116.10;213584;1290;139054;-88
2024/02/17 08:00:59;;;;;;;14.20;7.80;;;;;;;10.10;100.00;101123.64;212914;1290;140841;-88
2024/02/17 08:05:59;;;;;;;12.40;7.30;;;;;;;10.09;100.00;101124.48;213234;1286;138704;-88
2024/02/17 08:11:00;;;;;;;17.40;7.10;;;;;;;10.09;100.00;101127.15;212825;1290;140316;-86
2024/02/17 08:16:00;;;;;;;12.60;7.10;;;;;;;10.13;100.00;101130.70;213823;1290;139053;-89
2024/02/17 08:21:02;;;;;;;14.20;7.90;;;;;;;10.17;100.00;101140.05;214383;1286;140552;-86
2024/02/17 08:26:03;;;;;;;14.10;7.90;;;;;;;10.19;100.00;101135.26;213903;1288;179376;-88
2024/02/17 08:31:04;;;;;;;12.20;6.90;;;;;;;10.22;100.00;101133.34;213629;1287;140298;-89
2024/02/17 08:36:05;;;;;;;13.40;7.30;;;;;;;10.27;100.00;101138.27;213862;1285;138680;-87
2024/02/17 08:41:05;;;;;;;12.30;7.00;;;;;;;10.38;100.00;101136.48;213549;1289;140075;-88
2024/02/17 08:46:05;;;;;;;13.50;7.30;;;;;;;10.50;100.00;101140.84;213735;1285;138995;-85
2024/02/17 08:51:06;;;;;;;13.70;7.10;;;;;;;10.59;100.00;101146.40;213615;1285;140383;-87
2024/02/17 08:56:06;;;;;;;13.10;6.90;;;;;;;10.67;100.00;101152.70;213923;1285;139410;-89
2024/02/17 09:01:07;;;;;;;11.70;6.50;;;;;;;10.69;100.00;101154.55;213347;1285;140335;-86
2024/02/17 09:06:08;;;;;;;15.40;7.30;;;;;;;10.69;100.00;101153.70;214217;1285;99294;-92
2024/02/17 09:11:08;;;;;;;13.30;7.10;;;;;;;10.68;100.00;101162.18;213789;1291;139898;-89
2024/02/17 09:16:09;;;;;;;12.50;6.10;;;;;;;10.70;100.00;101164.51;213954;1288;139017;-88
2024/02/17 09:21:09;;;;;;;13.40;6.70;;;;;;;10.73;100.00;101171.73;214674;1289;140758;-89
2024/02/17 09:26:10;;;;;;;13.40;7.30;;;;;;;10.80;100.00;101183.91;214767;1285;139059;-88
2024/02/17 09:31:10;;;;;;;14.50;7.30;;;;;;;10.83;100.00;101189.10;213967;1288;140295;-87
2024/02/17 09:36:11;;;;;;;13.50;6.70;;;;;;;10.85;100.00;101192.92;214341;1285;98185;-89
2024/02/17 09:41:11;;;;;;;10.90;6.10;;;;;;;10.89;100.00;101201.34;213711;1286;141078;-88
2024/02/17 09:46:12;;;;;;;12.90;6.20;;;;;;;10.92;100.00;101208.33;213906;1285;139113;-88
2024/02/17 09:51:14;;;;;;;11.60;6.50;;;;;;;10.89;100.00;101214.50;213798;1289;140318;-87
2024/02/17 09:56:15;;;;;;;12.70;6.30;;;;;;;10.87;100.00;101222.39;213664;1288;139019;-89
2024/02/17 10:01:15;;;;;;;11.40;6.50;;;;;;;10.86;100.00;101227.47;213222;1286;142049;-89
2024/02/17 10:06:16;;;;;;;9.80;5.50;;;;;;;10.90;100.00;101233.63;214072;1289;98017;-89
2024/02/17 10:11:17;;;;;;;11.20;5.80;;;;;;;10.94;100.00;101240.58;213447;1289;140447;-88
2024/02/17 10:16:17;;;;;;;12.80;6.60;;;;;;;11.00;100.00;101247.23;213897;1285;139226;-87
2024/02/17 10:21:20;;;;;;;14.30;6.30;;;;;;;11.03;100.00;101256.12;214426;1289;139899;-88
2024/02/17 10:26:20;;;;;;;11.10;5.70;;;;;;;11.01;100.00;101258.34;214014;1289;139236;-87
2024/02/17 10:31:22;;;;;;;11.20;6.00;;;;;;;10.98;100.00;101260.73;213441;1289;139939;-89
2024/02/17 10:36:24;;;;;;;13.70;6.30;;;;;;;10.94;100.00;101259.05;214103;1286;97973;-86
2024/02/17 10:41:25;;;;;;;13.00;6.40;;;;;;;10.94;100.00;101261.58;213420;1289;140210;-91
2024/02/17 10:46:27;;;;;;;12.00;5.70;;;;;;;10.95;100.00;101265.45;214163;1288;139287;-90
2024/02/17 10:51:29;;;;;;;12.50;5.20;;;;;;;10.93;100.00;101263.77;213459;1288;140322;-89
2024/02/17 10:56:30;;;;;;;11.30;5.60;;;;;;;10.92;100.00;101262.86;214231;1286;139231;-91
2024/02/17 11:01:31;;;;;;;11.30;5.60;;;;;;;10.93;100.00;101265.40;213464;1289;140417;-89
2024/02/17 11:06:34;;;;;;;13.10;6.90;;;;;;;10.88;100.00;101272.30;214039;1286;98049;-89
2024/02/17 11:11:34;;;;;;;10.90;6.00;;;;;;;10.80;100.00;101282.43;213452;1286;141870;-89
2024/02/17 11:16:35;;;;;;;8.40;4.20;;;;;;;10.73;100.00;101304.76;213840;1286;139074;-92
2024/02/17 11:21:36;;;;;;;5.70;2.60;;;;;;;10.54;100.00;101321.02;214598;1286;140227;-92
2024/02/17 11:26:39;;;;;;;7.60;2.20;;;;;;;10.32;100.00;101324.61;215473;1290;138854;-94
2024/02/17 11:31:42;;;;;;;7.00;1.80;;;;;;;10.14;100.00;101328.61;214180;1286;140525;-94
2024/02/17 11:36:43;;;;;;;4.40;1.90;;;;;;;9.99;100.00;101337.20;214499;1286;114534;-92
2024/02/17 11:41:45;;;;;;;5.70;2.10;;;;;;;9.88;100.00;101347.02;213643;1286;140266;-94
2024/02/17 11:46:47;;;;;;;5.00;2.00;;;;;;;9.73;100.00;101354.06;214359;1287;138996;-91
2024/02/17 11:51:48;;;;;;;5.60;2.40;;;;;;;9.62;100.00;101355.93;213480;1290;140158;-92
2024/02/17 11:56:48;;;;;;;6.50;2.70;;;;;;;9.57;100.00;101361.73;213879;1291;139029;-93
2024/02/17 12:01:52;;;;;;;6.60;2.40;;;;;;;9.57;100.00;101367.97;213686;1285;140145;-92
2024/02/17 12:06:52;;;;;;;6.90;2.60;;;;;;;9.62;100.00;101369.99;214157;1285;98834;-90
2024/02/17 12:11:53;;;;;;;6.00;2.30;;;;;;;9.74;100.00;101377.40;213571;1286;140709;-95
2024/02/17 12:16:54;;;;;;;5.50;1.90;;;;;;;9.82;100.00;101381.02;214471;1287;138952;-91
2024/02/17 12:21:55;;;;;;;4.20;1.50;;;;;;;9.90;100.00;101385.89;214028;1285;140015;-92
2024/02/17 12:26:57;;;;;;;5.00;2.30;;;;;;;10.06;100.00;101415.48;215812;1286;138803;-94
2024/02/17 12:31:57;;;;;;;6.00;2.50;;;;;;;10.11;100.00;101433.38;213677;1289;140132;-89
2024/02/17 12:37:03;;;;;;;7.50;2.20;;;;;;;10.02;100.00;101451.55;214422;1285;97960;-95
2024/02/17 12:42:05;;;;;;;4.50;1.80;;;;;;;9.92;100.00;101459.02;213684;1285;139818;-92
2024/02/17 12:47:15;;;;;;;6.40;1.70;;;;;;;9.84;100.00;101469.69;214417;1286;138736;-93
2024/02/17 12:52:19;;;;;;;6.40;2.30;;;;;;;9.83;100.00;101476.90;213972;1286;140120;-93
2024/02/17 12:57:19;;;;;;;9.30;3.80;;;;;;;9.84;100.00;101481.73;214810;1290;138917;-87
2024/02/17 13:02:20;;;;;;;6.70;2.00;;;;;;;9.81;100.00;101494.17;213789;1285;141081;-93
2024/02/17 13:07:21;;;;;;;5.50;2.10;;;;;;;9.78;100.00;101503.60;214552;1285;139121;-94
2024/02/17 13:12:21;;;;;;;4.90;1.70;;;;;;;9.76;100.00;101518.86;214416;1285;140351;-94
2024/02/17 13:17:22;;;;;;;3.30;1.70;;;;;;;9.77;100.00;101527.06;214586;1285;138726;-92
2024/02/17 13:22:22;;;;;;;7.50;1.80;;;;;;;9.68;100.00;101531.62;213900;1285;140319;-94
2024/02/17 13:27:22;;;;;;;3.70;1.30;;;;;;;9.63;100.00;101541.42;216337;1289;137633;-91
2024/02/17 13:32:23;;;;;;;5.10;1.90;;;;;;;9.55;100.00;101555.53;214003;1286;140001;-92
2024/02/17 13:37:23;;;;;;;7.20;2.20;;;;;;;9.53;100.00;101562.86;214345;1289;139280;-92
2024/02/17 13:42:24;;;;;;;6.00;2.60;;;;;;;9.47;100.00;101580.02;213966;1285;139692;-91
2024/02/17 13:47:34;;;;;;;6.70;2.50;;;;;;;9.36;100.00;101580.04;214484;1285;139032;-92
2024/02/17 13:52:35;;;;;;;8.60;2.70;;;;;;;9.27;100.00;101583.97;213799;1286;141705;-93
2024/02/17 13:57:36;;;;;;;9.50;2.50;;;;;;;9.28;100.00;101591.38;214114;1285;139054;-91
2024/02/17 14:02:36;;;;;;;7.70;2.60;;;;;;;9.22;100.00;101600.44;213799;1289;140145;-92
2024/02/17 14:07:37;;;;;;;7.70;2.60;;;;;;;9.18;100.00;101613.61;214214;1288;138915;-91
2024/02/17 14:12:37;;;;;;;9.80;4.20;;;;;;;9.17;100.00;101614.45;213571;1288;139697;-93
2024/02/17 14:17:39;;;;;;;6.70;2.30;;;;;;;9.11;100.00;101619.16;214133;1285;138456;-90
2024/02/17 14:22:44;;;;;;;;;;;;;;;9.00;100.00;101632.05;213577;1285;139379;-92
2024/02/17 14:27:45;;;;;;;5.10;2.60;;;;;;;8.92;100.00;101640.81;215182;1286;125216;-91
2024/02/17 14:32:45;;;;;;;5.80;1.50;;;;;;;8.87;100.00;101651.39;214131;1284;140261;-92
2024/02/17 14:37:46;;;;;;;3.30;1.30;;;;;;;8.76;100.00;101663.30;214059;1286;138746;-91
2024/02/17 14:42:47;;;;;;;6.20;1.40;;;;;;;8.62;100.00;101673.02;213801;1289;139969;-91
2024/02/17 14:47:47;;;;;;;5.30;1.30;;;;;;;8.55;100.00;101683.09;213926;1286;138932;-92
2024/02/17 14:52:50;;;;;;;4.60;1.10;;;;;;;8.50;100.00;101690.58;213425;1286;140254;-90
2024/02/17 14:57:50;;;;;;;3.40;1.10;;;;;;;8.42;100.00;101696.77;213973;1286;138500;-91
2024/02/17 15:02:52;;;;;;;6.40;1.30;;;;;;;8.34;100.00;101705.77;213448;1285;139487;-91
2024/02/17 15:07:53;;;;;;;4.20;1.60;;;;;;;8.26;100.00;101714.23;213906;1286;138537;-91
2024/02/17 15:12:55;;;;;;;5.10;1.50;;;;;;;8.21;100.00;101726.23;213436;1285;139501;-90
2024/02/17 15:17:56;;;;;;;3.80;1.60;;;;;;;8.14;100.00;101736.36;213655;1286;139046;-92
2024/02/17 15:22:56;;;;;;;5.20;1.60;;;;;;;8.05;100.00;101740.13;213294;1287;151544;-90
2024/02/17 15:27:59;;;;;;;6.00;1.60;;;;;;;7.98;100.00;101752.35;213602;1286;138535;-90
2024/02/17 15:32:59;;;;;;;4.40;1.50;;;;;;;7.90;100.00;101760.15;213674;1284;139859;-92
2024/02/17 15:38:00;;;;;;;10.10;2.80;;;;;;;7.87;100.00;101765.86;213933;1285;139943;-91
2024/02/17 15:43:00;;;;;;;8.00;1.90;;;;;;;7.83;100.00;101767.04;213554;1291;140384;-90
2024/02/17 15:48:01;;;;;;;3.60;1.60;;;;;;;7.81;100.00;101770.33;214013;1284;138349;-92
2024/02/17 15:53:02;;;;;;;7.60;1.60;;;;;;;7.73;100.00;101779.59;213581;1285;140749;-91
2024/02/17 15:58:02;;;;;;;9.30;1.80;;;;;;;7.69;100.00;101787.52;214078;1286;138629;-90
2024/02/17 16:03:03;;;;;;;8.40;2.30;;;;;;;7.65;100.00;101797.02;213423;1284;140916;-91
2024/02/17 16:08:04;;;;;;;13.40;4.10;;;;;;;7.59;100.00;101799.17;213949;1285;138423;-91
2024/02/17 16:13:06;;;;;;;7.10;2.50;;;;;;;7.54;100.00;101809.61;213361;1288;139988;-91
2024/02/17 16:18:07;;;;;;;8.20;2.20;;;;;;;7.50;100.00;101819.81;213881;1285;99277;-90
2024/02/17 16:23:07;;;;;;;11.20;2.30;;;;;;;7.44;100.00;101828.00;213373;1285;139603;-91
2024/02/17 16:28:08;;;;;;;10.90;2.70;;;;;;;7.39;100.00;101830.89;213712;1286;138829;-90
2024/02/17 16:33:09;;;;;;;9.40;3.10;;;;;;;7.37;100.00;101847.89;213218;1289;140738;-91
2024/02/17 16:38:09;;;;;;;14.30;5.60;;;;;;;7.35;100.00;101852.62;213677;1287;138571;-90
2024/02/17 16:43:10;;;;;;;89.50;46.50;;;;;;;7.31;100.00;101858.55;213602;1285;139987;-92
2024/02/17 16:48:10;;;;;;;71.80;36.90;;;;;;;7.28;100.00;101863.23;214627;1286;97902;-92
2024/02/17 16:53:11;;;;;;;17.80;7.90;;;;;;;7.25;100.00;101876.56;213943;1285;140001;-91
2024/02/17 16:58:11;;;;;;;19.90;9.40;;;;;;;7.22;100.00;101888.45;214160;1284;139902;-92
2024/02/17 17:03:12;;;;;;;16.60;7.40;;;;;;;7.20;100.00;101896.73;213753;1286;140057;-91
2024/02/17 17:08:12;;;;;;;14.60;5.50;;;;;;;7.20;100.00;101901.50;214133;1285;138796;-91
2024/02/17 17:13:15;;;;;;;16.50;6.60;;;;;;;7.14;100.00;101911.08;213797;1285;140055;-92
2024/02/17 17:18:16;;;;;;;14.00;6.00;;;;;;;7.10;100.00;101916.80;214345;1285;99079;-92
2024/02/17 17:23:16;;;;;;;14.10;5.30;;;;;;;7.07;100.00;101921.69;213368;1285;139729;-92
2024/02/17 17:28:17;;;;;;;16.20;5.40;;;;;;;7.03;100.00;101926.25;214067;1285;138870;-91
2024/02/17 17:33:17;;;;;;;14.90;5.90;;;;;;;6.98;100.00;101935.09;213712;1285;140018;-91
2024/02/17 17:38:17;;;;;;;17.10;5.60;;;;;;;6.96;100.00;101948.66;214068;1285;138705;-92
2024/02/17 17:43:18;;;;;;;16.20;5.10;;;;;;;6.92;100.00;101957.59;213671;1285;140065;-92
2024/02/17 17:48:18;;;;;;;13.10;4.20;;;;;;;6.88;100.00;101963.98;214183;1289;98428;-91
2024/02/17 17:53:19;;;;;;;18.60;6.40;;;;;;;6.85;100.00;101964.23;213658;1285;140142;-91
2024/02/17 17:58:19;;;;;;;15.00;6.10;;;;;;;6.84;100.00;101974.51;214098;1289;139449;-91
2024/02/17 18:03:20;;;;;;;19.70;6.20;;;;;;;6.83;100.00;101979.19;213341;1289;140458;-92
2024/02/17 18:08:23;;;;;;;15.20;4.80;;;;;;;6.80;100.00;101980.15;213762;1287;138899;-92
2024/02/17 18:13:24;;;;;;;16.90;5.20;;;;;;;6.77;100.00;101985.02;213321;1286;139409;-92
2024/02/17 18:18:25;;;;;;;14.00;6.10;;;;;;;6.74;100.00;101983.91;214326;1285;97972;-91
2024/02/17 18:23:25;;;;;;;16.90;5.70;;;;;;;6.73;100.00;101991.44;213555;1288;140144;-92
2024/02/17 18:28:26;;;;;;;10.70;4.30;;;;;;;6.73;100.00;101995.59;214008;1285;139948;-92
2024/02/17 18:33:26;;;;;;;17.40;6.50;;;;;;;6.71;100.00;102006.13;213634;1289;141281;-93
2024/02/17 18:38:27;;;;;;;11.60;4.50;;;;;;;6.71;100.00;102015.09;214206;1285;138849;-92
2024/02/17 18:43:27;;;;;;;14.30;4.70;;;;;;;6.69;100.00;102019.45;213550;1285;139633;-92
2024/02/17 18:48:27;;;;;;;15.40;5.00;;;;;;;6.68;100.00;102031.37;214314;1285;99086;-92
2024/02/17 18:53:28;;;;;;;13.80;5.90;;;;;;;6.68;100.00;102037.44;213756;1285;139511;-91
2024/02/17 18:58:29;;;;;;;13.50;4.70;;;;;;;6.66;100.00;102047.70;214068;1285;138588;-89
2024/02/17 19:03:29;;;;;;;13.00;3.90;;;;;;;6.60;100.00;102063.45;213413;1285;139689;-91
2024/02/17 19:08:30;;;;;;;11.10;2.80;;;;;;;6.52;100.00;102069.83;214196;1289;138860;-91
2024/02/17 19:13:30;;;;;;;9.50;2.90;;;;;;;6.46;100.00;102075.34;213464;1285;139739;-91
2024/02/17 19:18:31;;;;;;;8.80;3.00;;;;;;;6.41;100.00;102091.36;214260;1285;98060;-92
2024/02/17 19:23:32;;;;;;;9.00;3.20;;;;;;;6.37;100.00;102100.43;213433;1286;139695;-91
2024/02/17 19:28:34;;;;;;;9.60;3.80;;;;;;;6.31;100.00;102104.84;214074;1285;138337;-92
2024/02/17 19:33:35;;;;;;;10.90;4.50;;;;;;;6.22;100.00;102115.54;213585;1284;139749;-91
2024/02/17 19:38:35;;;;;;;8.90;2.30;;;;;;;6.15;100.00;102125.81;214101;1289;140021;-92
2024/02/17 19:43:37;;;;;;;8.10;2.70;;;;;;;6.04;100.00;102139.98;213504;1285;139169;-92
2024/02/17 19:48:37;;;;;;;7.30;2.20;;;;;;;5.94;100.00;102148.06;214076;1285;98057;-92
2024/02/17 19:53:38;;;;;;;6.70;2.70;;;;;;;5.84;100.00;102160.66;213236;1286;139042;-91
2024/02/17 19:58:39;;;;;;;8.00;2.70;;;;;;;5.73;100.00;102159.66;213810;1290;138430;-91
2024/02/17 20:03:39;;;;;;;8.50;2.20;;;;;;;5.61;100.00;102166.81;212936;1285;139852;-92
2024/02/17 20:08:39;;;;;;;5.90;2.40;;;;;;;5.51;100.00;102177.55;213890;1285;139098;-90
2024/02/17 20:13:40;;;;;;;12.60;2.60;;;;;;;5.49;100.00;102182.56;213367;1289;140236;-92
2024/02/17 20:18:40;;;;;;;8.50;3.50;;;;;;;5.46;100.00;102195.30;213668;1286;98087;-92
2024/02/17 20:23:41;;;;;;;7.00;2.90;;;;;;;5.39;100.00;102201.40;213598;1285;140086;-91
2024/02/17 20:28:41;;;;;;;7.40;2.20;;;;;;;5.30;100.00;102205.12;213885;1285;145515;-91
2024/02/17 20:33:42;;;;;;;6.60;2.40;;;;;;;5.24;100.00;102214.73;213546;1288;139904;-91
2024/02/17 20:38:42;;;;;;;5.50;2.30;;;;;;;5.17;100.00;102217.13;213984;1285;139684;-91
2024/02/17 20:43:43;;;;;;;3.70;1.80;;;;;;;5.12;100.00;102218.84;213184;1285;139868;-91
2024/02/17 20:48:43;;;;;;;5.40;2.10;;;;;;;5.05;100.00;102230.48;214014;1285;98551;-90
2024/02/17 20:53:45;;;;;;;6.50;2.50;;;;;;;5.00;100.00;102239.13;213007;1287;139427;-91
2024/02/17 20:58:46;;;;;;;6.00;3.30;;;;;;;5.00;100.00;102243.88;213743;1289;139624;-90
2024/02/17 21:03:47;;;;;;;4.50;2.10;;;;;;;4.93;100.00;102259.04;213313;1286;140923;-91
2024/02/17 21:08:51;;;;;;;6.80;1.90;;;;;;;4.88;100.00;102260.27;213790;1285;138600;-91
2024/02/17 21:13:52;;;;;;;3.30;1.70;;;;;;;4.83;100.00;102261.14;213367;1284;139399;-91
2024/02/17 21:18:54;;;;;;;15.30;6.60;;;;;;;4.81;100.00;102268.48;213993;1285;104636;-92
2024/02/17 21:23:54;;;;;;;9.80;3.10;;;;;;;4.82;100.00;102269.84;213461;1285;140656;-91
2024/02/17 21:29:04;;;;;;;16.40;5.50;;;;;;;4.82;100.00;102275.02;213884;1285;138759;-90
2024/02/17 21:34:04;;;;;;;13.60;4.50;;;;;;;4.83;100.00;102271.08;213291;1285;140142;-90
2024/02/17 21:39:06;;;;;;;12.80;4.80;;;;;;;4.84;100.00;102273.56;213984;1285;139440;-91
2024/02/17 21:44:07;;;;;;;20.10;7.20;;;;;;;4.85;100.00;102274.27;213458;1285;139663;-91
2024/02/17 21:49:08;;;;;;;8.10;2.70;;;;;;;4.84;100.00;102274.67;213916;1285;138762;-89
2024/02/17 21:54:09;;;;;;;14.90;5.80;;;;;;;4.84;100.00;102290.27;213812;1285;139760;-91
2024/02/17 21:59:09;;;;;;;7.10;3.00;;;;;;;4.86;100.00;102290.58;214107;1289;138518;-92
2024/02/17 22:04:10;;;;;;;11.70;3.80;;;;;;;4.85;100.00;102286.49;213542;1285;139479;-91
2024/02/17 22:09:10;;;;;;;8.10;2.70;;;;;;;4.84;100.00;102294.30;214093;1284;138840;-91
2024/02/17 22:14:11;;;;;;;8.90;3.10;;;;;;;4.84;100.00;102291.09;213437;1285;140247;-90
2024/02/17 22:19:11;;;;;;;9.80;3.70;;;;;;;4.82;100.00;102299.66;213934;1288;138701;-90
2024/02/17 22:24:12;;;;;;;12.60;5.10;;;;;;;4.83;100.00;102308.45;213316;1287;140863;-90
2024/02/17 22:29:12;;;;;;;10.00;3.60;;;;;;;4.84;100.00;102304.73;213695;1288;138554;-91
2024/02/17 22:34:13;;;;;;;10.40;4.60;;;;;;;4.85;100.00;102301.55;213397;1285;139892;-89